createdAt,value
2023-01-13T00:01:16.424Z,62.03
2023-01-13T00:03:44.699Z,62.24
2023-01-13T00:06:17.447Z,62.56
2023-01-13T00:08:45.115Z,61.96
2023-01-13T00:11:12.436Z,61.75
2023-01-13T00:13:39.850Z,61.88
2023-01-13T00:16:10.492Z,61.77
2023-01-13T00:18:37.921Z,61.87
2023-01-13T00:21:07.830Z,61.64
2023-01-13T00:23:35.697Z,61.98
2023-01-13T00:26:09.749Z,61.91
2023-01-13T00:28:37.401Z,61.96
2023-01-13T00:31:25.055Z,62.26
2023-01-13T00:33:56.452Z,61.91
2023-01-13T00:36:23.883Z,61.96
2023-01-13T00:38:51.195Z,62.09
2023-01-13T00:41:20.847Z,62.03
2023-01-13T00:43:48.878Z,62.17
2023-01-13T00:46:18.684Z,61.71
2023-01-13T00:48:47.262Z,61.82
2023-01-13T00:51:19.923Z,62.09
2023-01-13T00:53:50.336Z,62.18
2023-01-13T00:56:40.833Z,62.02
2023-01-13T00:59:13.027Z,62.52
2023-01-13T01:01:41.121Z,62.36
2023-01-13T01:04:09.048Z,62.45
2023-01-13T01:06:36.695Z,62.46
2023-01-13T01:09:04.747Z,62.92
2023-01-13T01:11:33.687Z,62.44
2023-01-13T01:14:02.433Z,62.20
2023-01-13T01:16:31.941Z,62.75
2023-01-13T01:19:00.388Z,62.34
2023-01-13T01:21:28.587Z,62.39
2023-01-13T01:23:56.244Z,62.04
2023-01-13T01:26:25.489Z,62.18
2023-01-13T01:28:53.402Z,62.22
2023-01-13T01:31:23.278Z,63.13
2023-01-13T01:33:51.574Z,62.29
2023-01-13T01:36:20.159Z,62.38
2023-01-13T01:38:48.494Z,62.52
2023-01-13T01:41:22.818Z,62.56
2023-01-13T01:44:00.063Z,62.62
2023-01-13T01:46:48.055Z,62.29
2023-01-13T01:49:32.400Z,62.16
2023-01-13T01:52:13.407Z,62.69
2023-01-13T01:54:46.340Z,62.26
2023-01-13T01:57:20.306Z,61.82
2023-01-13T01:59:47.772Z,62.14
2023-01-13T02:02:15.696Z,62.65
2023-01-13T02:04:51.009Z,62.45
2023-01-13T02:07:21.220Z,62.67
2023-01-13T02:09:49.069Z,62.23
2023-01-13T02:12:32.535Z,62.11
2023-01-13T02:15:07.554Z,62.40
2023-01-13T02:18:07.855Z,62.47
2023-01-13T02:20:59.953Z,62.55
2023-01-13T02:24:23.775Z,62.82
2023-01-13T02:27:13.002Z,63.29
2023-01-13T02:30:40.705Z,63.21
2023-01-13T02:33:39.093Z,63.00
2023-01-13T02:36:13.623Z,62.91
2023-01-13T02:39:09.132Z,63.19
2023-01-13T02:42:19.330Z,62.49
2023-01-13T02:44:49.867Z,62.59
2023-01-13T02:47:27.113Z,63.44
2023-01-13T02:50:04.384Z,63.03
2023-01-13T02:52:39.179Z,63.14
2023-01-13T02:55:12.543Z,63.37
2023-01-13T02:57:41.520Z,63.52
2023-01-13T03:00:11.469Z,63.14
2023-01-13T03:02:39.023Z,62.72
2023-01-13T03:05:06.811Z,62.82
2023-01-13T03:07:55.628Z,62.63
2023-01-13T03:10:34.566Z,62.19
2023-01-13T03:13:40.707Z,62.91
2023-01-13T03:16:45.553Z,62.49
2023-01-13T03:19:43.383Z,62.67
2023-01-13T03:22:24.542Z,62.61
2023-01-13T03:25:01.180Z,62.55
2023-01-13T03:27:35.781Z,62.72
2023-01-13T03:30:08.015Z,62.76
2023-01-13T03:32:45.650Z,63.26
2023-01-13T03:35:42.660Z,62.89
2023-01-13T03:38:13.805Z,62.68
2023-01-13T03:40:50.064Z,63.05
2023-01-13T03:43:41.122Z,62.32
2023-01-13T03:46:14.031Z,62.89
2023-01-13T03:48:42.303Z,63.48
2023-01-13T03:51:12.295Z,63.22
2023-01-13T03:53:49.263Z,63.07
2023-01-13T03:56:27.357Z,63.20
2023-01-13T03:58:55.213Z,63.14
2023-01-13T04:01:27.142Z,63.30
2023-01-13T04:04:01.872Z,62.86
2023-01-13T04:06:52.307Z,63.13
2023-01-13T04:09:22.920Z,63.01
2023-01-13T04:12:02.283Z,62.97
2023-01-13T04:14:30.516Z,63.29
2023-01-13T04:16:58.001Z,63.36
2023-01-13T04:19:25.415Z,62.95
2023-01-13T04:21:53.225Z,63.16
2023-01-13T04:24:22.041Z,63.47
2023-01-13T04:26:50.549Z,62.97
2023-01-13T04:29:18.341Z,62.75
2023-01-13T04:31:45.684Z,63.09
2023-01-13T04:34:13.064Z,63.78
2023-01-13T04:36:40.843Z,64.09
2023-01-13T04:39:08.201Z,63.41
2023-01-13T04:41:53.976Z,63.09
2023-01-13T04:44:21.593Z,63.22
2023-01-13T04:46:48.933Z,63.09
2023-01-13T04:49:16.315Z,63.75
2023-01-13T04:51:43.996Z,63.49
2023-01-13T04:54:11.412Z,63.65
2023-01-13T04:56:38.790Z,63.46
2023-01-13T04:59:06.444Z,62.89
2023-01-13T05:01:33.953Z,62.94
2023-01-13T05:04:01.661Z,63.19
2023-01-13T05:06:29.641Z,62.87
2023-01-13T05:08:57.272Z,62.89
2023-01-13T05:11:43.409Z,63.37
2023-01-13T05:14:29.372Z,62.90
2023-01-13T05:17:03.411Z,62.74
2023-01-13T05:19:39.046Z,63.85
2023-01-13T05:22:25.552Z,63.53
2023-01-13T05:25:11.634Z,63.20
2023-01-13T05:27:39.139Z,63.32
2023-01-13T05:30:07.321Z,63.12
2023-01-13T05:32:34.728Z,63.18
2023-01-13T05:35:02.210Z,63.59
2023-01-13T05:37:29.928Z,64.05
2023-01-13T05:40:16.009Z,64.24
2023-01-13T05:43:02.947Z,64.16
2023-01-13T05:45:31.034Z,64.10
2023-01-13T05:47:58.858Z,63.77
2023-01-13T05:50:26.207Z,63.86
2023-01-13T05:52:53.535Z,63.99
2023-01-13T05:55:21.231Z,64.02
2023-01-13T05:57:48.580Z,63.60
2023-01-13T06:00:16.643Z,63.93
2023-01-13T06:02:44.337Z,63.83
2023-01-13T06:05:11.703Z,63.88
2023-01-13T06:07:39.065Z,64.20
2023-01-13T06:10:07.313Z,64.12
2023-01-13T06:12:34.658Z,63.85
2023-01-13T06:15:02.039Z,64.09
2023-01-13T06:17:29.705Z,64.29
2023-01-13T06:19:57.051Z,63.93
2023-01-13T06:22:27.383Z,63.52
2023-01-13T06:24:55.056Z,63.78
2023-01-13T06:27:23.226Z,63.65
2023-01-13T06:29:50.939Z,63.29
2023-01-13T06:32:21.738Z,63.84
2023-01-13T06:34:53.741Z,64.09
2023-01-13T06:37:25.356Z,63.97
2023-01-13T06:39:58.068Z,63.66
2023-01-13T06:42:48.766Z,63.33
2023-01-13T06:45:16.330Z,63.57
2023-01-13T06:47:44.114Z,63.25
2023-01-13T06:50:11.598Z,63.48
2023-01-13T06:52:38.943Z,63.30
2023-01-13T06:55:06.877Z,63.84
2023-01-13T06:57:34.305Z,63.81
2023-01-13T07:00:01.830Z,64.11
2023-01-13T07:02:30.014Z,64.30
2023-01-13T07:04:57.475Z,64.30
2023-01-13T07:07:24.875Z,64.36
2023-01-13T07:09:52.624Z,64.76
2023-01-13T07:12:20.025Z,64.93
2023-01-13T07:15:05.698Z,64.75
2023-01-13T07:17:33.366Z,64.73
2023-01-13T07:20:00.726Z,64.74
2023-01-13T07:22:28.141Z,64.59
2023-01-13T07:24:56.666Z,64.81
2023-01-13T07:27:24.027Z,65.09
2023-01-13T07:29:51.394Z,67.19
2023-01-13T07:32:19.306Z,65.44
2023-01-13T07:34:46.706Z,64.07
2023-01-13T07:37:14.065Z,64.44
2023-01-13T07:39:41.740Z,64.20
2023-01-13T07:42:28.076Z,63.84
2023-01-13T07:44:55.727Z,64.07
2023-01-13T07:47:23.371Z,63.91
2023-01-13T07:49:50.735Z,63.95
2023-01-13T07:52:18.426Z,64.09
2023-01-13T07:54:45.863Z,65.40
2023-01-13T07:57:13.231Z,67.08
2023-01-13T07:59:40.885Z,70.30
2023-01-13T08:02:12.750Z,68.49
2023-01-13T08:04:41.112Z,66.76
2023-01-13T08:07:08.518Z,65.10
2023-01-13T08:09:35.950Z,61.58
2023-01-13T08:12:22.203Z,61.50
2023-01-13T08:14:50.921Z,61.69
2023-01-13T08:17:20.456Z,61.99
2023-01-13T08:19:48.102Z,61.81
2023-01-13T08:22:15.544Z,61.62
2023-01-13T08:24:43.434Z,60.79
2023-01-13T08:27:10.895Z,61.36
2023-01-13T08:29:38.274Z,61.62
2023-01-13T08:32:06.374Z,61.59
2023-01-13T08:34:33.952Z,61.68
2023-01-13T08:37:01.419Z,61.92
2023-01-13T08:39:29.212Z,61.93
2023-01-13T08:41:56.715Z,61.21
2023-01-13T08:44:26.486Z,61.43
2023-01-13T08:46:54.714Z,61.60
2023-01-13T08:49:22.624Z,61.68
2023-01-13T08:51:50.601Z,61.34
2023-01-13T08:54:18.547Z,61.16
2023-01-13T08:56:47.076Z,61.18
2023-01-13T08:59:16.848Z,60.65
2023-01-13T09:01:45.698Z,61.24
2023-01-13T09:04:23.715Z,61.75
2023-01-13T09:06:51.588Z,61.56
2023-01-13T09:09:19.054Z,61.33
2023-01-13T09:12:08.569Z,60.84
2023-01-13T09:14:37.958Z,61.10
2023-01-13T09:17:05.591Z,61.11
2023-01-13T09:19:33.250Z,60.84
2023-01-13T09:22:01.010Z,60.97
2023-01-13T09:24:28.770Z,61.48
2023-01-13T09:26:56.224Z,61.10
2023-01-13T09:29:23.951Z,61.14
2023-01-13T09:31:51.304Z,60.99
2023-01-13T09:34:39.117Z,60.65
2023-01-13T09:37:07.446Z,60.53
2023-01-13T09:39:35.910Z,68.95
2023-01-13T09:42:35.037Z,66.40
2023-01-13T09:45:07.143Z,63.73
2023-01-13T09:47:56.654Z,61.56
2023-01-13T09:50:40.100Z,60.27
2023-01-13T09:53:13.233Z,60.02
2023-01-13T09:55:40.881Z,59.71
2023-01-13T09:58:19.322Z,59.56
2023-01-13T10:01:10.925Z,59.86
2023-01-13T10:03:38.639Z,59.56
2023-01-13T10:06:19.999Z,59.96
2023-01-13T10:08:48.742Z,59.75
2023-01-13T10:11:40.518Z,59.52
2023-01-13T10:14:10.944Z,59.27
2023-01-13T10:16:44.254Z,59.72
2023-01-13T10:19:18.430Z,59.12
2023-01-13T10:21:59.510Z,59.25
2023-01-13T10:24:52.137Z,59.87
2023-01-13T10:27:34.500Z,60.00
2023-01-13T10:30:17.430Z,60.30
2023-01-13T10:32:56.281Z,60.17
2023-01-13T10:35:54.098Z,60.15
2023-01-13T10:38:29.277Z,59.97
2023-01-13T10:41:03.104Z,60.38
2023-01-13T10:43:31.420Z,60.74
2023-01-13T10:46:02.700Z,60.66
2023-01-13T10:48:41.640Z,60.83
2023-01-13T10:51:44.458Z,60.15
2023-01-13T10:54:12.553Z,60.63
2023-01-13T10:56:42.052Z,60.68
2023-01-13T10:59:29.779Z,60.60
2023-01-13T11:02:31.483Z,61.04
2023-01-13T11:05:24.687Z,60.74
2023-01-13T11:07:54.969Z,60.60
2023-01-13T11:10:23.929Z,60.93
2023-01-13T11:12:58.755Z,60.77
2023-01-13T11:15:45.671Z,61.40
2023-01-13T11:18:26.782Z,61.59
2023-01-13T11:20:55.724Z,61.10
2023-01-13T11:23:29.121Z,60.95
2023-01-13T11:26:09.450Z,61.54
2023-01-13T11:28:46.125Z,61.54
2023-01-13T11:31:28.116Z,61.53
2023-01-13T11:34:07.428Z,61.24
2023-01-13T11:36:39.547Z,61.52
2023-01-13T11:39:30.306Z,61.96
2023-01-13T11:42:20.108Z,61.45
2023-01-13T11:45:05.435Z,60.52
2023-01-13T11:47:34.934Z,60.93
2023-01-13T11:50:02.723Z,61.27
2023-01-13T11:52:34.814Z,61.43
2023-01-13T11:55:22.533Z,61.37
2023-01-13T11:58:14.209Z,61.45
2023-01-13T12:01:00.497Z,61.19
2023-01-13T12:03:54.262Z,62.95
2023-01-13T12:06:40.110Z,61.88
2023-01-13T12:09:14.145Z,61.64
2023-01-13T12:12:12.617Z,61.30
2023-01-13T12:14:46.620Z,61.38
2023-01-13T12:17:40.413Z,61.41
2023-01-13T12:20:24.458Z,61.35
2023-01-13T12:22:54.039Z,61.72
2023-01-13T12:25:29.923Z,61.33
2023-01-13T12:28:07.741Z,60.75
2023-01-13T12:30:52.208Z,60.73
2023-01-13T12:33:25.612Z,61.30
2023-01-13T12:36:04.571Z,61.38
2023-01-13T12:38:45.869Z,61.15
2023-01-13T12:41:30.785Z,61.22
2023-01-13T12:44:16.941Z,61.24
2023-01-13T12:46:56.327Z,61.26
2023-01-13T12:49:34.610Z,61.51
2023-01-13T12:52:14.336Z,61.74
2023-01-13T12:54:42.438Z,61.94
2023-01-13T12:57:21.273Z,61.74
2023-01-13T13:00:00.740Z,61.16
2023-01-13T13:02:38.568Z,61.52
2023-01-13T13:05:15.566Z,61.71
2023-01-13T13:08:01.652Z,61.30
2023-01-13T13:10:32.150Z,61.42
2023-01-13T13:13:19.706Z,61.45
2023-01-13T13:15:49.104Z,61.38
2023-01-13T13:18:16.703Z,61.42
2023-01-13T13:20:58.191Z,61.46
2023-01-13T13:23:52.708Z,61.35
2023-01-13T13:26:24.864Z,61.31
2023-01-13T13:29:07.791Z,62.04
2023-01-13T13:31:50.489Z,61.96
2023-01-13T13:34:27.086Z,61.98
2023-01-13T13:37:06.407Z,61.69
2023-01-13T13:39:52.698Z,61.75
2023-01-13T13:42:41.979Z,62.11
2023-01-13T13:45:40.337Z,62.23
2023-01-13T13:48:24.989Z,61.56
2023-01-13T13:50:57.886Z,61.84
2023-01-13T13:53:45.525Z,61.93
2023-01-13T13:56:22.154Z,62.08
2023-01-13T13:58:49.998Z,62.29
2023-01-13T14:01:34.555Z,61.79
2023-01-13T14:04:04.522Z,61.78
2023-01-13T14:06:32.921Z,62.19
2023-01-13T14:09:00.845Z,63.37
2023-01-13T14:11:32.272Z,62.09
2023-01-13T14:14:21.071Z,62.25
2023-01-13T14:16:51.682Z,62.30
2023-01-13T14:19:28.379Z,62.85
2023-01-13T14:21:56.743Z,67.79
2023-01-13T14:24:25.119Z,67.32
2023-01-13T14:26:53.184Z,62.64
2023-01-13T14:29:23.006Z,61.00
2023-01-13T14:31:51.967Z,61.43
2023-01-13T14:34:31.154Z,61.50
2023-01-13T14:37:02.907Z,61.95
2023-01-13T14:39:42.470Z,62.25
2023-01-13T14:42:14.189Z,61.34
2023-01-13T14:44:45.518Z,61.60
2023-01-13T14:47:27.633Z,62.17
2023-01-13T14:50:27.791Z,62.43
2023-01-13T14:52:57.090Z,62.52
2023-01-13T14:55:30.304Z,62.67
2023-01-13T14:58:28.483Z,62.54
2023-01-13T15:01:29.634Z,63.28
2023-01-13T15:04:26.304Z,63.34
2023-01-13T15:06:56.851Z,63.07
2023-01-13T15:09:29.836Z,62.91
2023-01-13T15:11:58.793Z,63.42
2023-01-13T15:14:34.723Z,63.92
2023-01-13T15:17:03.168Z,63.92
2023-01-13T15:19:30.837Z,63.76
2023-01-13T15:21:58.236Z,66.49
2023-01-13T15:24:25.663Z,64.68
2023-01-13T15:26:53.348Z,63.94
2023-01-13T15:29:21.055Z,68.19
2023-01-13T15:31:48.409Z,70.90
2023-01-13T15:34:16.162Z,70.67
2023-01-13T15:36:43.750Z,69.77
2023-01-13T15:39:12.471Z,66.85
2023-01-13T15:41:58.706Z,66.21
2023-01-13T15:44:44.748Z,63.55
2023-01-13T15:47:14.585Z,61.59
2023-01-13T15:49:45.961Z,61.57
2023-01-13T15:52:28.198Z,62.08
2023-01-13T15:54:55.578Z,62.21
2023-01-13T15:57:25.901Z,62.13
2023-01-13T15:59:55.312Z,61.84
2023-01-13T16:02:23.591Z,62.47
2023-01-13T16:04:53.859Z,62.62
2023-01-13T16:07:22.830Z,62.61
2023-01-13T16:09:50.555Z,62.61
2023-01-13T16:12:18.455Z,62.21
2023-01-13T16:14:46.160Z,63.21
2023-01-13T16:17:20.023Z,63.33
2023-01-13T16:19:47.775Z,63.49
2023-01-13T16:22:16.214Z,63.54
2023-01-13T16:24:44.238Z,63.47
2023-01-13T16:27:17.354Z,63.47
2023-01-13T16:29:45.143Z,63.72
2023-01-13T16:32:13.052Z,63.76
2023-01-13T16:34:40.991Z,63.35
2023-01-13T16:37:27.625Z,63.68
2023-01-13T16:39:55.366Z,63.52
2023-01-13T16:42:23.130Z,63.46
2023-01-13T16:44:51.800Z,63.45
2023-01-13T16:47:19.240Z,63.68
2023-01-13T16:49:46.963Z,63.65
2023-01-13T16:52:14.356Z,63.41
2023-01-13T16:54:41.762Z,63.24
2023-01-13T16:57:13.234Z,63.13
2023-01-13T16:59:40.653Z,63.06
2023-01-13T17:02:15.317Z,63.04
2023-01-13T17:04:43.464Z,63.45
2023-01-13T17:07:14.755Z,63.39
2023-01-13T17:09:42.188Z,63.04
2023-01-13T17:12:10.554Z,63.12
2023-01-13T17:14:37.955Z,63.26
2023-01-13T17:17:05.372Z,62.97
2023-01-13T17:19:33.070Z,63.08
2023-01-13T17:22:00.519Z,62.98
2023-01-13T17:24:30.929Z,63.24
2023-01-13T17:26:59.030Z,63.14
2023-01-13T17:29:27.712Z,62.95
2023-01-13T17:31:55.313Z,63.09
2023-01-13T17:34:23.049Z,63.17
2023-01-13T17:36:50.583Z,62.97
2023-01-13T17:39:20.514Z,62.93
2023-01-13T17:41:48.221Z,62.45
2023-01-13T17:44:17.327Z,62.49
2023-01-13T17:46:45.327Z,62.74
2023-01-13T17:49:22.107Z,63.17
2023-01-13T17:51:51.082Z,63.04
2023-01-13T17:54:19.408Z,63.38
2023-01-13T17:56:47.156Z,63.32
2023-01-13T17:59:16.919Z,63.55
2023-01-13T18:01:44.974Z,63.30
2023-01-13T18:04:17.665Z,63.32
2023-01-13T18:06:45.387Z,63.37
2023-01-13T18:09:13.008Z,63.68
2023-01-13T18:11:40.663Z,63.57
2023-01-13T18:14:09.527Z,62.97
2023-01-13T18:16:37.599Z,63.29
2023-01-13T18:19:24.119Z,63.08
2023-01-13T18:22:10.451Z,63.28
2023-01-13T18:24:56.656Z,63.21
2023-01-13T18:27:29.436Z,63.42
2023-01-13T18:29:59.328Z,63.37
2023-01-13T18:32:32.802Z,63.49
2023-01-13T18:35:09.108Z,63.29
2023-01-13T18:37:39.986Z,63.07
2023-01-13T18:40:10.685Z,62.94
2023-01-13T18:42:58.875Z,63.20
2023-01-13T18:45:31.622Z,63.32
2023-01-13T18:48:01.884Z,63.19
2023-01-13T18:50:29.813Z,63.27
2023-01-13T18:52:57.534Z,63.32
2023-01-13T18:55:25.429Z,63.26
2023-01-13T18:57:53.641Z,63.30
2023-01-13T19:00:22.407Z,63.22
2023-01-13T19:05:34.945Z,62.63
2023-01-13T19:08:03.245Z,62.82
2023-01-13T19:10:32.349Z,63.19
2023-01-13T19:13:01.433Z,63.34
2023-01-13T19:15:29.519Z,63.40
2023-01-13T19:17:57.336Z,63.44
2023-01-13T19:20:25.019Z,63.49
2023-01-13T19:22:54.459Z,63.41
2023-01-13T19:25:22.007Z,63.16
2023-01-13T19:27:49.510Z,63.03
2023-01-13T19:30:17.452Z,63.01
2023-01-13T19:32:44.837Z,62.85
2023-01-13T19:35:17.110Z,63.12
2023-01-13T19:37:45.448Z,63.19
2023-01-13T19:40:15.704Z,63.23
2023-01-13T19:43:15.184Z,63.24
2023-01-13T19:45:42.927Z,63.35
2023-01-13T19:48:10.844Z,63.09
2023-01-13T19:50:39.560Z,64.25
2023-01-13T19:53:07.950Z,63.91
2023-01-13T19:55:35.437Z,64.04
2023-01-13T19:58:03.822Z,64.01
2023-01-13T20:00:31.609Z,64.01
2023-01-13T20:03:03.377Z,63.43
2023-01-13T20:05:30.930Z,63.00
2023-01-13T20:07:58.681Z,63.59
2023-01-13T20:10:26.089Z,63.81
2023-01-13T20:12:53.519Z,63.81
2023-01-13T20:15:21.254Z,63.85
2023-01-13T20:17:48.978Z,63.79
2023-01-13T20:20:16.880Z,63.53
2023-01-13T20:22:44.628Z,63.48
2023-01-13T20:25:16.825Z,63.52
2023-01-13T20:27:46.069Z,63.29
2023-01-13T20:30:14.425Z,63.37
2023-01-13T20:32:43.285Z,63.36
2023-01-13T20:35:11.676Z,62.97
2023-01-13T20:37:40.177Z,62.82
2023-01-13T20:40:09.031Z,63.17
2023-01-13T20:42:44.585Z,63.00
2023-01-13T20:45:17.212Z,63.26
2023-01-13T20:47:45.658Z,63.62
2023-01-13T20:50:13.606Z,63.57
2023-01-13T20:52:41.120Z,63.24
2023-01-13T20:55:09.482Z,63.33
2023-01-13T20:57:36.946Z,63.60
2023-01-13T21:00:05.353Z,63.71
2023-01-13T21:02:33.118Z,62.96
2023-01-13T21:05:00.560Z,63.42
2023-01-13T21:07:28.331Z,63.77
2023-01-13T21:09:57.324Z,64.03
2023-01-13T21:12:43.244Z,63.67
2023-01-13T21:15:18.192Z,63.93
2023-01-13T21:18:05.803Z,64.03
2023-01-13T21:20:34.572Z,64.00
2023-01-13T21:23:03.422Z,64.16
2023-01-13T21:25:31.186Z,64.17
2023-01-13T21:28:05.456Z,64.06
2023-01-13T21:30:33.487Z,64.42
2023-01-13T21:33:02.473Z,64.34
2023-01-13T21:35:29.878Z,64.39
2023-01-13T21:37:57.495Z,64.33
2023-01-13T21:40:25.176Z,64.54
2023-01-13T21:43:11.283Z,63.93
2023-01-13T21:45:57.926Z,64.14
2023-01-13T21:48:25.345Z,64.51
2023-01-13T21:50:53.011Z,64.74
2023-01-13T21:53:20.392Z,65.56
2023-01-13T21:55:51.488Z,65.93
2023-01-13T21:58:19.222Z,65.93
2023-01-13T22:00:49.126Z,65.91
2023-01-13T22:03:18.631Z,65.45
2023-01-13T22:05:46.539Z,64.90
2023-01-13T22:08:13.959Z,65.46
2023-01-13T22:11:00.651Z,65.34
2023-01-13T22:13:47.892Z,65.53
2023-01-13T22:16:15.964Z,65.89
2023-01-13T22:18:43.429Z,67.34
2023-01-13T22:21:11.102Z,66.67
2023-01-13T22:23:38.974Z,66.38
2023-01-13T22:26:07.536Z,66.17
2023-01-13T22:28:40.809Z,66.62
2023-01-13T22:31:17.249Z,66.32
2023-01-13T22:33:48.038Z,66.02
2023-01-13T22:36:15.710Z,65.60
2023-01-13T22:38:43.412Z,65.59
2023-01-13T22:41:10.788Z,65.80
2023-01-13T22:43:39.156Z,66.77
2023-01-13T22:46:09.222Z,66.43
2023-01-13T22:48:37.462Z,66.26
2023-01-13T22:51:14.124Z,66.63
2023-01-13T22:53:42.067Z,66.33
2023-01-13T22:56:17.930Z,66.84
2023-01-13T22:58:45.395Z,66.55
2023-01-13T23:01:15.106Z,66.16
2023-01-13T23:03:46.294Z,66.24
2023-01-13T23:06:14.437Z,66.11
2023-01-13T23:08:41.883Z,66.11
2023-01-13T23:11:11.089Z,65.41
2023-01-13T23:13:39.539Z,65.27
2023-01-13T23:16:09.416Z,65.64
2023-01-13T23:18:36.800Z,65.33
2023-01-13T23:21:10.543Z,64.91
2023-01-13T23:23:38.159Z,64.87
2023-01-13T23:26:07.014Z,65.00
2023-01-13T23:28:35.595Z,65.28
2023-01-13T23:31:07.706Z,65.32
2023-01-13T23:33:37.702Z,65.52
2023-01-13T23:36:06.842Z,65.43
2023-01-13T23:38:34.248Z,65.12
2023-01-13T23:41:08.719Z,65.42
2023-01-13T23:43:36.393Z,65.73
2023-01-13T23:46:09.629Z,65.59
2023-01-13T23:48:37.432Z,65.72
2023-01-13T23:51:08.016Z,65.50
2023-01-13T23:53:40.202Z,65.75
2023-01-13T23:56:09.030Z,65.79
2023-01-13T23:58:36.317Z,66.12
